Latest Coastal Weather Observations for Low Head

IDT60701

Issued at 7:55 am EST Friday 22 August 2014 (issued every 10 minutes, with the page automatically refreshed every 10 minutes)

About coastal observations | Map of coastal stations | Coastal observations for TAS | Marine services | Other Formats
Station Details ID: 091293 Name: LOW HEAD Lat: -41.05 Lon: 146.79 Height: 3.0 m
Data from the previous 72 hours. | See also: Recent months at Low Head
Date/Time
EST
Temp

°C
Wind Pressure Rain
since 9am
mm
Weather Cloud Vis
km
Sea
Height
m
Swell
Dir
 
Speed
knots
Gust
knots
hPa Trend Height
m
Period
s
Dir
22/07:30am 9.9 E 10 13 1033.1 - 0.0 - - - - - - -
22/07:00am 9.6 ESE 8 11 1032.9 - 0.0 - - - - - - -
22/06:30am 9.8 ESE 7 9 1032.8 - 0.0 - - - - - - -
22/06:00am 9.2 SE 6 8 1032.7 F 0.0 Fine Partly cloudy 20 <0.5 0.3 3 NW
22/05:30am 9.8 SE 7 8 1032.6 - 0.0 - - - - - - -
22/05:00am 9.5 SE 7 9 1032.5 - 0.0 - - - - - - -
22/04:30am 9.5 SE 8 10 1032.3 - 0.0 - - - - - - -
22/04:00am 9.6 ESE 7 10 1032.2 - 0.0 - - - - - - -
22/03:30am 9.6 ESE 8 11 1032.1 - 0.0 - - - - - - -
22/03:00am 9.8 E 10 14 1032.1 - 0.0 - - - - - - -
22/02:30am 9.9 E 10 13 1032.3 - 0.0 - - - - - - -
22/02:00am 10.4 E 12 15 1032.8 - 0.0 - - - - - - -
22/01:30am 10.7 E 12 15 1033.0 - 0.0 - - - - - - -
22/01:00am 10.3 E 8 11 1033.1 - 0.0 - - - - - - -
22/12:30am 10.3 E 8 11 1033.2 - 0.0 - - - - - - -
22/12:00am 10.2 E 8 11 1033.3 - 0.0 - - - - - - -
 
Date/Time
EST
Temp

°C
Wind Pressure Rain
since 9am
mm
Weather Cloud Vis
km
Sea
Height
m
Swell
Dir
 
Speed
knots
Gust
knots
hPa Trend Height
m
Period
s
Dir
21/11:30pm 9.8 E 8 11 1033.2 - 0.0 - - - - - - -
21/11:00pm 9.7 E 11 13 1033.1 - 0.0 - - - - - - -
21/10:30pm 10.1 E 11 14 1033.0 - 0.0 - - - - - - -
21/10:00pm 10.1 E 11 13 1033.0 - 0.0 - - - - - - -
21/09:30pm 10.5 E 9 12 1032.9 - 0.0 - - - - - - -
21/09:00pm 11.1 E 11 14 1032.8 - 0.0 - - - - - - -
21/08:30pm 11.7 ENE 14 16 1032.6 - 0.0 - - - - - - -
21/08:00pm 12.1 ENE 14 16 1032.5 - 0.0 - - - - - - -
21/07:30pm 12.5 ENE 15 17 1032.3 - 0.0 - - - - - - -
21/07:00pm 12.5 ENE 15 19 1032.1 - 0.0 - - - - - - -
21/06:30pm 12.4 ENE 13 15 1031.9 - 0.0 - - - - - - -
21/06:00pm 12.8 ENE 14 16 1031.7 - 0.0 - - - - - - -
21/05:30pm 12.8 NE 13 15 1031.4 - 0.0 - - - - - - -
21/05:00pm 13.1 NE 13 15 1031.1 - 0.0 - - - - - - -
21/04:30pm 13.2 ENE 12 14 1030.9 - 0.0 - - - - - - -
21/04:00pm 13.4 NE 13 15 1030.9 - 0.0 - - - - - - -
21/03:30pm 13.7 NE 13 15 1030.7 - 0.0 - - - - - - -
21/03:00pm 14.0 NE 13 15 1030.8 F 0.0 Fine Partly cloudy 25 <0.1 0.3 3 -
21/02:30pm 14.0 NE 13 15 1030.9 - 0.0 - - - - - - -
21/02:00pm 13.9 NE 12 13 1031.0 - 0.0 - - - - - - -
21/01:30pm 14.2 NE 11 13 1031.2 - 0.0 - - - - - - -
21/01:00pm 13.4 ESE 3 7 1031.6 - 0.0 - - - - - - -
21/12:30pm 12.7 S 9 11 1031.7 - 0.0 - - - - - - -
21/12:00pm 12.0 S 11 14 1032.1 - 0.0 - - - - - - -
21/11:30am 11.7 S 12 14 1032.3 - 0.0 - - - - - - -
21/11:00am 11.2 SSE 12 15 1032.4 - 0.0 - - - - - - -
21/10:30am 10.2 S 13 17 1032.6 - 0.0 - - - - - - -
21/10:00am 8.9 S 15 18 1032.6 - 0.0 - - - - - - -
21/09:30am 8.1 S 15 18 1032.6 - 0.0 - - - - - - -
21/09:00am 7.6 S 16 19 1032.6 F 0.0 Fine Mostly cloudy 25 <0.5 0.3 3 NW
21/08:30am 7.1 S 16 18 1032.4 - 0.0 - - - - - - -
21/08:00am 6.5 SSE 14 17 1032.2 - 0.0 - - - - - - -
21/07:30am 6.6 S 15 17 1031.8 - 0.0 - - - - - - -
21/07:00am 6.4 SSE 13 17 1031.6 - 0.0 - - - - - - -
21/06:30am 6.6 SSE 13 17 1031.1 - 0.0 - - - - - - -
21/06:00am 6.9 SSE 13 15 1031.0 F 0.0 Fine Partly cloudy 20 <0.5 0.3 3 NW
21/05:30am 6.7 SSE 12 15 1030.9 - 0.0 - - - - - - -
21/05:00am 6.5 SSE 12 14 1030.7 - 0.0 - - - - - - -
21/04:30am 6.7 SSE 11 13 1030.6 - 0.0 - - - - - - -
21/04:00am 6.7 S 12 14 1030.4 - 0.0 - - - - - - -
21/03:30am 7.0 SSE 11 13 1030.2 - 0.0 - - - - - - -
21/03:00am 7.3 SSE 10 12 1030.2 - 0.0 - - - - - - -
21/02:30am 7.4 SSE 9 11 1030.2 - 0.0 - - - - - - -
21/02:00am 7.5 SSE 9 11 1030.2 - 0.0 - - - - - - -
21/01:30am 8.0 SSE 8 9 1030.2 - 0.0 - - - - - - -
21/01:00am 7.9 SSE 8 8 1030.2 - 0.0 - - - - - - -
21/12:30am 8.0 SSE 7 8 1030.2 - 0.0 - - - - - - -
21/12:00am 8.3 SSE 7 8 1030.2 - 0.0 - - - - - - -
 
Date/Time
EST
Temp

°C
Wind Pressure Rain
since 9am
mm
Weather Cloud Vis
km
Sea
Height
m
Swell
Dir
 
Speed
knots
Gust
knots
hPa Trend Height
m
Period
s
Dir
20/11:30pm 8.2 SSE 6 7 1030.1 - 0.0 - - - - - - -
20/11:00pm 8.2 SE 6 8 1030.0 - 0.0 - - - - - - -
20/10:30pm 7.9 SSE 7 9 1030.0 - 0.0 - - - - - - -
20/10:00pm 8.1 SSE 7 8 1029.9 - 0.0 - - - - - - -
20/09:30pm 8.6 SSE 6 7 1029.8 - 0.0 - - - - - - -
20/09:00pm 9.1 ESE 5 7 1029.5 - 0.0 - - - - - - -
20/08:30pm 8.8 SSE 5 6 1029.3 - 0.0 - - - - - - -
20/08:00pm 9.1 E 5 6 1028.9 - 0.0 - - - - - - -
20/07:30pm 9.3 SSE 1 3 1028.7 - 0.0 - - - - - - -
20/07:00pm 10.0 CALM 0 0 1028.3 - 0.0 - - - - - - -
20/06:30pm 11.3 NNE 3 4 1027.9 - 0.0 - - - - - - -
20/06:00pm 11.6 NNE 5 5 1027.5 - 0.0 - - - - - - -
20/05:30pm 11.9 NNE 6 7 1027.1 - 0.0 - - - - - - -
20/05:00pm 12.1 NNE 7 9 1026.8 - 0.0 - - - - - - -
20/04:30pm 12.5 NNE 7 8 1026.6 - 0.0 - - - - - - -
20/04:00pm 12.6 NNE 7 8 1026.4 - 0.0 - - - - - - -
20/03:30pm 12.5 NNE 7 8 1026.4 - 0.0 - - - - - - -
20/03:00pm 12.2 NNE 7 7 1026.2 R 0.0 Fine Mostly cloudy 20 <0.1 0.3 3 -
20/02:30pm 12.6 NNE 5 6 1026.1 - 0.0 - - - - - - -
20/02:00pm 12.4 NNE 6 6 1025.9 - 0.0 - - - - - - -
20/01:30pm 12.1 NNE 4 6 1025.8 - 0.0 - - - - - - -
20/01:00pm 12.2 NNE 4 5 1026.1 - 0.0 - - - - - - -
20/12:30pm 12.3 NNE 4 5 1026.1 - 0.0 - - - - - - -
20/12:00pm 12.3 S 9 10 1026.2 - 0.0 - - - - - - -
20/11:30am 11.8 S 10 11 1026.4 - 0.0 - - - - - - -
20/11:00am 11.0 S 10 12 1026.5 - 0.0 - - - - - - -
20/10:30am 9.9 SSE 11 14 1026.4 - 0.0 - - - - - - -
20/10:00am 8.9 SSE 13 16 1026.4 - 0.0 - - - - - - -
20/09:30am 8.6 S 14 17 1026.2 - 0.0 - - - - - - -
20/09:00am 7.7 SSE 11 14 1026.0 R 0.0 Fine Mostly clear 25 <0.5 0.5 3 NW
20/08:30am 7.0 SSE 11 15 1025.7 - 0.0 - - - - - - -
20/08:00am 6.5 S 10 13 1025.4 - 0.0 - - - - - - -
20/07:30am 5.9 SSE 9 13 1025.0 - 0.0 - - - - - - -
20/07:00am 5.7 SSE 11 14 1024.5 - 0.0 - - - - - - -
20/06:30am 5.6 SSE 10 13 1024.2 - 0.0 - - - - - - -
20/06:00am 5.9 SSE 10 15 1024.1 R 0.0 Fine Mostly cloudy 20 <0.5 0.5 3 NW
20/05:30am 6.1 S 10 13 1024.0 - 0.0 - - - - - - -
20/05:00am 5.6 SSE 10 12 1023.8 - 0.0 - - - - - - -
20/04:30am 5.8 SSE 11 15 1023.6 - 0.0 - - - - - - -
20/04:00am 6.3 S 9 11 1023.6 - 0.0 - - - - - - -
20/03:30am 6.1 SSE 9 12 1023.7 - 0.0 - - - - - - -
20/03:00am 6.2 S 7 10 1023.6 - 0.0 - - - - - - -
20/02:30am 6.1 S 6 8 1023.6 - 0.0 - - - - - - -
20/02:00am 5.3 SSE 6 7 1023.7 - 0.0 - - - - - - -
20/01:30am 5.5 SSE 7 9 1023.8 - 0.0 - - - - - - -
20/01:00am 5.7 SE 7 9 1023.6 - 0.0 - - - - - - -
20/12:30am 5.7 SSE 7 10 1023.7 - 0.0 - - - - - - -
20/12:00am 6.0 SE 6 8 1023.7 - 0.0 - - - - - - -
 
Date/Time
EST
Temp

°C
Wind Pressure Rain
since 9am
mm
Weather Cloud Vis
km
Sea
Height
m
Swell
Dir
 
Speed
knots
Gust
knots
hPa Trend Height
m
Period
s
Dir
19/11:30pm 7.2 S 9 11 1023.6 - 0.0 - - - - - - -
19/11:00pm 6.3 SSE 8 10 1023.5 - 0.0 - - - - - - -
19/10:30pm 6.2 SSE 8 9 1023.6 - 0.0 - - - - - - -
19/10:00pm 6.5 SSE 8 10 1023.6 - 0.0 - - - - - - -
19/09:30pm 6.9 S 8 10 1023.4 - 0.0 - - - - - - -
19/09:00pm 7.7 S 8 10 1023.3 - 0.0 - - - - - - -
19/08:30pm 7.3 S 7 8 1023.2 - 0.0 - - - - - - -
19/08:00pm 7.8 SSE 7 8 1023.1 - 0.0 - - - - - - -
19/07:30pm 9.4 E 1 5 1023.0 - 0.0 - - - - - - -
19/07:00pm 10.5 CALM 0 3 1022.8 - 0.0 - - - - - - -
19/06:30pm 10.9 NW 5 6 1022.6 - 0.0 - - - - - - -
19/06:00pm 11.1 WNW 8 9 1022.5 - 0.0 - - - - - - -
19/05:30pm 11.2 WNW 9 10 1022.4 - 0.0 - - - - - - -
19/05:00pm 11.9 WNW 10 11 1022.2 - 0.0 - - - - - - -
19/04:30pm 12.1 WNW 10 11 1022.2 - 0.0 - - - - - - -
19/04:00pm 12.2 WNW 11 12 1022.3 - 0.0 - - - - - - -
19/03:30pm 12.4 NW 11 12 1022.4 - 0.0 - - - - - - -
19/03:00pm 12.3 NW 11 13 1022.4 F 0.0 Fine Mostly clear 25 <0.5 0.5 3 NW
19/02:30pm 12.3 NW 12 14 1022.4 - 0.0 - - - - - - -
19/02:00pm 13.0 NW 10 11 1022.4 - 0.0 - - - - - - -
19/01:30pm 13.1 WNW 8 9 1022.6 - 0.0 - - - - - - -
19/01:00pm 12.0 NNW 4 6 1023.0 - 0.0 - - - - - - -
19/12:30pm 11.1 W 4 5 1023.5 - 0.0 - - - - - - -
19/12:00pm 10.7 S 5 6 1023.9 - 0.0 - - - - - - -
19/11:30am 10.2 S 10 11 1024.2 - 0.0 - - - - - - -
19/11:00am 9.6 S 12 14 1024.5 - 0.0 - - - - - - -
19/10:30am 8.7 S 13 14 1024.5 - 0.0 - - - - - - -
19/10:00am 7.8 S 12 15 1024.4 - 0.0 - - - - - - -
19/09:30am 7.4 S 14 17 1024.5 - 0.0 - - - - - - -
19/09:00am 6.4 S 14 17 1024.6 R 0.0 Fine Mostly clear 25 <0.5 0.5 3 NW
19/08:30am 5.8 S 13 16 1024.5 - 0.0 - - - - - - -
19/08:00am 5.5 S 13 17 1024.3 - 0.0 - - - - - - -

Other Formats:

Comma delimited format used in spreadsheet applications
http://www.bom.gov.au/fwo/IDT60701/IDT60701.95964.axf

JavaScript Object Notation format (JSON) in row-major order
http://www.bom.gov.au/fwo/IDT60701/IDT60701.95964.json